Terminal Aerodrome Forecast
Issued by NWS

Home | Current Version | Previous Version | Text Only | Print | Product List | Glossary Off
Versions: 1 2 3 4 5 6 7 8 9 10 11 12 13 14 15 16 17 18 19

000
FTUS43 KABR 270729 AAB
TAFMBG
TAF AMD
KMBG 270729Z 2707/2806 19004KT P6SM VCTS SCT070CB BKN150
      TEMPO 2707/2709 5SM TSRA OVC050CB
     FM271600 03014KT P6SM -SHRA OVC025
     FM272200 02015KT P6SM OVC015=

USA.gov is the U.S. government's official web portal to all federal, state and local government web resources and services.